sensor_id;sensor_type;location;lat;lon;timestamp;pressure;altitude;pressure_sealevel;temperature;humidity
11099;BME280;12223;42.650;23.364;2023-04-10T00:00:22;94862.72;;;7.28;100.00
11099;BME280;12223;42.650;23.364;2023-04-10T00:02:49;94860.69;;;7.23;100.00
11099;BME280;12223;42.650;23.364;2023-04-10T00:05:17;94861.88;;;7.21;100.00
11099;BME280;12223;42.650;23.364;2023-04-10T00:07:44;94871.59;;;7.20;95.80
11099;BME280;12223;42.650;23.364;2023-04-10T00:10:11;94861.47;;;7.17;93.29
11099;BME280;12223;42.650;23.364;2023-04-10T00:12:38;94860.03;;;7.15;89.62
11099;BME280;12223;42.650;23.364;2023-04-10T00:15:06;94857.78;;;7.05;87.74
11099;BME280;12223;42.650;23.364;2023-04-10T00:17:34;94850.88;;;6.98;86.91
11099;BME280;12223;42.650;23.364;2023-04-10T00:20:01;94860.78;;;7.02;86.10
11099;BME280;12223;42.650;23.364;2023-04-10T00:22:29;94853.09;;;6.94;84.65
11099;BME280;12223;42.650;23.364;2023-04-10T00:24:56;94847.47;;;7.04;84.82
11099;BME280;12223;42.650;23.364;2023-04-10T00:27:22;94848.09;;;7.06;83.01
11099;BME280;12223;42.650;23.364;2023-04-10T00:29:49;94846.88;;;7.02;81.78
11099;BME280;12223;42.650;23.364;2023-04-10T00:32:16;94849.06;;;6.98;82.37
11099;BME280;12223;42.650;23.364;2023-04-10T00:34:44;94837.50;;;6.86;80.49
11099;BME280;12223;42.650;23.364;2023-04-10T00:37:11;94847.44;;;6.97;79.43
11099;BME280;12223;42.650;23.364;2023-04-10T00:39:38;94835.19;;;7.11;77.58
11099;BME280;12223;42.650;23.364;2023-04-10T00:42:05;94843.69;;;7.13;76.09
11099;BME280;12223;42.650;23.364;2023-04-10T00:44:34;94835.63;;;7.14;73.89
11099;BME280;12223;42.650;23.364;2023-04-10T00:47:02;94826.94;;;7.20;73.44
11099;BME280;12223;42.650;23.364;2023-04-10T00:49:29;94837.66;;;7.19;73.30
11099;BME280;12223;42.650;23.364;2023-04-10T00:51:58;94837.66;;;7.25;74.13
11099;BME280;12223;42.650;23.364;2023-04-10T00:54:25;94819.63;;;7.16;75.18
11099;BME280;12223;42.650;23.364;2023-04-10T00:56:52;94833.16;;;7.06;77.14
11099;BME280;12223;42.650;23.364;2023-04-10T00:59:19;94836.03;;;7.18;78.32
11099;BME280;12223;42.650;23.364;2023-04-10T01:01:45;94795.50;;;6.86;79.96
11099;BME280;12223;42.650;23.364;2023-04-10T01:04:13;94820.22;;;7.05;81.37
11099;BME280;12223;42.650;23.364;2023-04-10T01:06:50;94821.25;;;7.17;81.77
11099;BME280;12223;42.650;23.364;2023-04-10T01:09:33;94812.97;;;7.13;84.10
11099;BME280;12223;42.650;23.364;2023-04-10T01:12:09;94819.47;;;7.24;85.33
11099;BME280;12223;42.650;23.364;2023-04-10T01:14:45;94818.31;;;7.33;85.17
11099;BME280;12223;42.650;23.364;2023-04-10T01:17:17;94817.47;;;7.26;85.76
11099;BME280;12223;42.650;23.364;2023-04-10T01:19:57;94823.56;;;7.40;86.81
11099;BME280;12223;42.650;23.364;2023-04-10T01:22:33;94826.16;;;7.26;87.42
11099;BME280;12223;42.650;23.364;2023-04-10T01:28:03;94818.03;;;7.21;92.63
11099;BME280;12223;42.650;23.364;2023-04-10T01:30:35;94817.63;;;7.18;93.53
11099;BME280;12223;42.650;23.364;2023-04-10T01:33:04;94801.47;;;7.21;93.70
11099;BME280;12223;42.650;23.364;2023-04-10T01:35:35;94814.63;;;7.34;93.32
11099;BME280;12223;42.650;23.364;2023-04-10T01:38:05;94811.19;;;7.34;92.65
11099;BME280;12223;42.650;23.364;2023-04-10T01:40:35;94811.44;;;7.39;94.55
11099;BME280;12223;42.650;23.364;2023-04-10T01:43:07;94813.84;;;7.27;96.06
11099;BME280;12223;42.650;23.364;2023-04-10T01:45:39;94814.44;;;7.29;97.53
11099;BME280;12223;42.650;23.364;2023-04-10T01:48:08;94814.25;;;7.31;98.62
11099;BME280;12223;42.650;23.364;2023-04-10T01:50:35;94815.44;;;7.28;98.02
11099;BME280;12223;42.650;23.364;2023-04-10T01:53:04;94818.88;;;7.35;97.94
11099;BME280;12223;42.650;23.364;2023-04-10T01:55:32;94814.25;;;7.37;97.58
11099;BME280;12223;42.650;23.364;2023-04-10T01:58:01;94809.84;;;7.44;96.89
11099;BME280;12223;42.650;23.364;2023-04-10T02:00:29;94812.66;;;7.49;96.62
11099;BME280;12223;42.650;23.364;2023-04-10T02:02:59;94817.13;;;7.55;97.65
11099;BME280;12223;42.650;23.364;2023-04-10T02:05:30;94815.09;;;7.51;98.94
11099;BME280;12223;42.650;23.364;2023-04-10T02:08:08;94818.06;;;7.35;100.00
11099;BME280;12223;42.650;23.364;2023-04-10T02:10:43;94802.13;;;7.36;100.00
11099;BME280;12223;42.650;23.364;2023-04-10T02:13:13;94810.03;;;7.43;100.00
11099;BME280;12223;42.650;23.364;2023-04-10T02:15:42;94799.72;;;7.54;100.00
11099;BME280;12223;42.650;23.364;2023-04-10T02:18:14;94796.94;;;7.62;99.64
11099;BME280;12223;42.650;23.364;2023-04-10T02:20:42;94789.44;;;7.59;98.78
11099;BME280;12223;42.650;23.364;2023-04-10T02:23:09;94790.22;;;7.47;98.33
11099;BME280;12223;42.650;23.364;2023-04-10T02:25:36;94791.81;;;7.41;96.93
11099;BME280;12223;42.650;23.364;2023-04-10T02:28:03;94789.63;;;7.51;95.50
11099;BME280;12223;42.650;23.364;2023-04-10T02:30:30;94788.59;;;7.39;95.19
11099;BME280;12223;42.650;23.364;2023-04-10T02:32:57;94776.06;;;7.48;93.21
11099;BME280;12223;42.650;23.364;2023-04-10T02:35:25;94780.53;;;7.54;93.36
11099;BME280;12223;42.650;23.364;2023-04-10T02:37:53;94777.31;;;7.58;91.91
11099;BME280;12223;42.650;23.364;2023-04-10T02:40:20;94771.81;;;7.40;93.78
11099;BME280;12223;42.650;23.364;2023-04-10T02:42:47;94767.81;;;7.57;92.63
11099;BME280;12223;42.650;23.364;2023-04-10T02:45:14;94770.44;;;7.57;92.08
11099;BME280;12223;42.650;23.364;2023-04-10T02:47:41;94767.81;;;7.51;92.90
11099;BME280;12223;42.650;23.364;2023-04-10T02:50:08;94764.19;;;7.58;93.06
11099;BME280;12223;42.650;23.364;2023-04-10T02:52:37;94758.91;;;7.58;93.14
11099;BME280;12223;42.650;23.364;2023-04-10T02:55:04;94757.88;;;7.53;94.25
11099;BME280;12223;42.650;23.364;2023-04-10T02:57:31;94750.38;;;7.30;97.75
11099;BME280;12223;42.650;23.364;2023-04-10T02:59:58;94753.63;;;7.32;99.01
11099;BME280;12223;42.650;23.364;2023-04-10T03:02:24;94747.97;;;7.35;99.77
11099;BME280;12223;42.650;23.364;2023-04-10T03:04:52;94737.44;;;7.28;99.41
11099;BME280;12223;42.650;23.364;2023-04-10T03:07:18;94759.28;;;7.36;100.00
11099;BME280;12223;42.650;23.364;2023-04-10T03:09:47;94751.38;;;7.29;100.00
11099;BME280;12223;42.650;23.364;2023-04-10T03:12:13;94765.28;;;7.16;100.00
11099;BME280;12223;42.650;23.364;2023-04-10T03:14:41;94753.97;;;7.09;100.00
11099;BME280;12223;42.650;23.364;2023-04-10T03:17:08;94757.59;;;7.02;100.00
11099;BME280;12223;42.650;23.364;2023-04-10T03:19:34;94762.03;;;6.95;100.00
11099;BME280;12223;42.650;23.364;2023-04-10T03:22:01;94757.78;;;6.94;100.00
11099;BME280;12223;42.650;23.364;2023-04-10T03:24:28;94761.41;;;6.93;100.00
11099;BME280;12223;42.650;23.364;2023-04-10T03:26:56;94754.16;;;6.95;100.00
11099;BME280;12223;42.650;23.364;2023-04-10T03:29:23;94761.22;;;6.94;100.00
11099;BME280;12223;42.650;23.364;2023-04-10T03:31:50;94755.97;;;6.94;100.00
11099;BME280;12223;42.650;23.364;2023-04-10T03:34:16;94756.34;;;6.98;100.00
11099;BME280;12223;42.650;23.364;2023-04-10T03:36:43;94768.44;;;6.85;100.00
11099;BME280;12223;42.650;23.364;2023-04-10T03:39:11;94760.13;;;6.75;100.00
11099;BME280;12223;42.650;23.364;2023-04-10T03:41:37;94759.91;;;6.77;100.00
11099;BME280;12223;42.650;23.364;2023-04-10T03:44:06;94766.16;;;6.69;100.00
11099;BME280;12223;42.650;23.364;2023-04-10T03:46:32;94767.34;;;6.67;100.00
11099;BME280;12223;42.650;23.364;2023-04-10T03:49:23;94768.97;;;6.68;100.00
11099;BME280;12223;42.650;23.364;2023-04-10T03:52:20;94768.97;;;6.68;100.00
11099;BME280;12223;42.650;23.364;2023-04-10T03:54:47;94766.13;;;6.63;100.00
11099;BME280;12223;42.650;23.364;2023-04-10T03:57:13;94773.59;;;6.66;100.00
11099;BME280;12223;42.650;23.364;2023-04-10T03:59:44;94754.59;;;6.57;100.00
11099;BME280;12223;42.650;23.364;2023-04-10T04:02:11;94776.69;;;6.76;100.00
11099;BME280;12223;42.650;23.364;2023-04-10T04:04:38;94787.78;;;6.78;100.00
11099;BME280;12223;42.650;23.364;2023-04-10T04:07:05;94781.94;;;6.76;100.00
11099;BME280;12223;42.650;23.364;2023-04-10T04:09:31;94785.13;;;6.71;100.00
11099;BME280;12223;42.650;23.364;2023-04-10T04:11:58;94788.78;;;6.77;100.00
11099;BME280;12223;42.650;23.364;2023-04-10T04:14:25;94796.84;;;6.69;100.00
11099;BME280;12223;42.650;23.364;2023-04-10T04:16:53;94798.50;;;6.76;100.00
11099;BME280;12223;42.650;23.364;2023-04-10T04:19:20;94792.50;;;6.96;100.00
11099;BME280;12223;42.650;23.364;2023-04-10T04:21:47;94798.19;;;6.99;100.00
11099;BME280;12223;42.650;23.364;2023-04-10T04:24:13;94789.88;;;7.02;100.00
11099;BME280;12223;42.650;23.364;2023-04-10T04:26:40;94798.44;;;7.17;100.00
11099;BME280;12223;42.650;23.364;2023-04-10T04:29:07;94802.31;;;7.28;100.00
11099;BME280;12223;42.650;23.364;2023-04-10T04:31:33;94795.31;;;7.61;100.00
11099;BME280;12223;42.650;23.364;2023-04-10T04:34:01;94797.75;;;7.96;100.00
11099;BME280;12223;42.650;23.364;2023-04-10T04:36:28;94801.00;;;8.37;100.00
11099;BME280;12223;42.650;23.364;2023-04-10T04:39:10;94796.19;;;8.92;100.00
11099;BME280;12223;42.650;23.364;2023-04-10T04:41:37;94795.63;;;9.35;96.17
11099;BME280;12223;42.650;23.364;2023-04-10T04:44:04;94804.00;;;10.13;90.04
11099;BME280;12223;42.650;23.364;2023-04-10T04:46:31;94805.16;;;9.67;86.98
11099;BME280;12223;42.650;23.364;2023-04-10T04:48:58;94806.09;;;9.48;89.07
11099;BME280;12223;42.650;23.364;2023-04-10T04:51:26;94807.56;;;9.31;91.25
11099;BME280;12223;42.650;23.364;2023-04-10T04:53:53;94804.84;;;9.82;89.37
11099;BME280;12223;42.650;23.364;2023-04-10T04:56:20;94808.63;;;10.24;85.43
11099;BME280;12223;42.650;23.364;2023-04-10T04:58:46;94807.38;;;10.87;79.76
11099;BME280;12223;42.650;23.364;2023-04-10T05:01:13;94812.81;;;11.59;74.25
11099;BME280;12223;42.650;23.364;2023-04-10T05:03:40;94755.16;;;11.79;70.06
11099;BME280;12223;42.650;23.364;2023-04-10T05:06:07;94810.97;;;12.66;65.58
11099;BME280;12223;42.650;23.364;2023-04-10T05:08:35;94812.44;;;12.85;62.90
11099;BME280;12223;42.650;23.364;2023-04-10T05:11:02;94812.47;;;12.73;62.76
11099;BME280;12223;42.650;23.364;2023-04-10T05:13:30;94816.13;;;13.07;59.93
11099;BME280;12223;42.650;23.364;2023-04-10T05:15:57;94821.06;;;13.67;58.58
11099;BME280;12223;42.650;23.364;2023-04-10T05:18:24;94816.56;;;13.39;57.88
11099;BME280;12223;42.650;23.364;2023-04-10T05:20:50;94815.44;;;13.00;58.21
11099;BME280;12223;42.650;23.364;2023-04-10T05:23:17;94808.75;;;13.21;58.16
11099;BME280;12223;42.650;23.364;2023-04-10T05:25:46;94814.47;;;13.69;57.33
11099;BME280;12223;42.650;23.364;2023-04-10T05:28:13;94816.47;;;14.07;56.01
11099;BME280;12223;42.650;23.364;2023-04-10T05:30:39;94817.34;;;14.58;54.35
11099;BME280;12223;42.650;23.364;2023-04-10T05:33:06;94818.13;;;14.92;52.61
11099;BME280;12223;42.650;23.364;2023-04-10T05:35:33;94818.28;;;14.85;52.49
11099;BME280;12223;42.650;23.364;2023-04-10T05:38:00;94809.56;;;14.90;51.75
11099;BME280;12223;42.650;23.364;2023-04-10T05:40:27;94800.38;;;14.81;50.99
11099;BME280;12223;42.650;23.364;2023-04-10T05:42:55;94819.19;;;14.58;51.84
11099;BME280;12223;42.650;23.364;2023-04-10T05:45:23;94813.13;;;14.29;51.25
11099;BME280;12223;42.650;23.364;2023-04-10T05:47:49;94822.53;;;14.20;52.78
11099;BME280;12223;42.650;23.364;2023-04-10T05:50:16;94821.44;;;14.49;52.07
11099;BME280;12223;42.650;23.364;2023-04-10T05:52:43;94818.91;;;14.93;50.52
11099;BME280;12223;42.650;23.364;2023-04-10T05:55:11;94816.69;;;15.06;50.17
11099;BME280;12223;42.650;23.364;2023-04-10T05:57:37;94821.84;;;15.13;49.12
11099;BME280;12223;42.650;23.364;2023-04-10T06:00:07;94827.78;;;14.81;49.57
11099;BME280;12223;42.650;23.364;2023-04-10T06:02:34;94824.63;;;14.18;51.00
11099;BME280;12223;42.650;23.364;2023-04-10T06:05:00;94828.41;;;14.22;51.30
11099;BME280;12223;42.650;23.364;2023-04-10T06:07:27;94833.53;;;13.95;52.13
11099;BME280;12223;42.650;23.364;2023-04-10T06:09:54;94826.97;;;13.17;53.99
11099;BME280;12223;42.650;23.364;2023-04-10T06:12:21;94825.59;;;12.80;56.21
11099;BME280;12223;42.650;23.364;2023-04-10T06:14:47;94833.66;;;12.73;56.57
11099;BME280;12223;42.650;23.364;2023-04-10T06:17:16;94824.69;;;12.63;56.94
11099;BME280;12223;42.650;23.364;2023-04-10T06:19:45;94822.97;;;12.57;57.36
11099;BME280;12223;42.650;23.364;2023-04-10T06:22:12;94828.81;;;12.47;58.16
11099;BME280;12223;42.650;23.364;2023-04-10T06:24:38;94823.88;;;12.51;58.55
11099;BME280;12223;42.650;23.364;2023-04-10T06:27:06;94826.25;;;12.17;59.68
11099;BME280;12223;42.650;23.364;2023-04-10T06:29:33;94818.34;;;11.76;61.19
11099;BME280;12223;42.650;23.364;2023-04-10T06:32:00;94824.75;;;11.50;63.29
11099;BME280;12223;42.650;23.364;2023-04-10T06:34:28;94819.13;;;11.10;65.15
11099;BME280;12223;42.650;23.364;2023-04-10T06:36:55;94818.16;;;11.22;66.54
11099;BME280;12223;42.650;23.364;2023-04-10T06:39:24;94829.31;;;10.88;68.10
11099;BME280;12223;42.650;23.364;2023-04-10T06:41:50;94831.00;;;10.82;70.42
11099;BME280;12223;42.650;23.364;2023-04-10T06:44:17;94829.47;;;10.75;72.64
11099;BME280;12223;42.650;23.364;2023-04-10T06:46:44;94828.88;;;10.73;73.15
11099;BME280;12223;42.650;23.364;2023-04-10T06:49:10;94833.44;;;10.84;71.98
11099;BME280;12223;42.650;23.364;2023-04-10T06:51:39;94829.84;;;10.35;72.50
11099;BME280;12223;42.650;23.364;2023-04-10T06:54:05;94838.78;;;10.03;77.52
11099;BME280;12223;42.650;23.364;2023-04-10T06:56:35;94842.16;;;9.85;80.19
11099;BME280;12223;42.650;23.364;2023-04-10T06:59:02;94838.75;;;9.78;81.53
11099;BME280;12223;42.650;23.364;2023-04-10T07:01:30;94840.81;;;10.01;80.78
11099;BME280;12223;42.650;23.364;2023-04-10T07:03:57;94840.31;;;10.24;79.39
11099;BME280;12223;42.650;23.364;2023-04-10T07:06:24;94842.22;;;10.35;77.44
11099;BME280;12223;42.650;23.364;2023-04-10T07:08:53;94828.91;;;10.48;75.90
11099;BME280;12223;42.650;23.364;2023-04-10T07:11:20;94847.75;;;10.52;76.51
11099;BME280;12223;42.650;23.364;2023-04-10T07:13:47;94838.69;;;10.66;76.54
11099;BME280;12223;42.650;23.364;2023-04-10T07:16:17;94842.81;;;10.62;76.86
11099;BME280;12223;42.650;23.364;2023-04-10T07:18:44;94839.09;;;10.44;75.69
11099;BME280;12223;42.650;23.364;2023-04-10T07:21:11;94838.22;;;10.26;76.34
11099;BME280;12223;42.650;23.364;2023-04-10T07:23:40;94821.84;;;9.92;77.62
11099;BME280;12223;42.650;23.364;2023-04-10T07:26:09;94837.13;;;9.77;82.26
11099;BME280;12223;42.650;23.364;2023-04-10T07:28:36;94797.34;;;9.54;82.05
11099;BME280;12223;42.650;23.364;2023-04-10T07:31:03;94828.75;;;9.87;82.16
11099;BME280;12223;42.650;23.364;2023-04-10T07:33:30;94845.53;;;9.99;82.38
11099;BME280;12223;42.650;23.364;2023-04-10T07:35:57;94845.41;;;9.81;81.79
11099;BME280;12223;42.650;23.364;2023-04-10T07:38:24;94852.69;;;9.92;82.75
11099;BME280;12223;42.650;23.364;2023-04-10T07:40:55;94850.00;;;9.98;82.28
11099;BME280;12223;42.650;23.364;2023-04-10T07:43:23;94837.88;;;10.16;81.59
11099;BME280;12223;42.650;23.364;2023-04-10T07:45:50;94855.56;;;10.15;79.48
11099;BME280;12223;42.650;23.364;2023-04-10T07:48:17;94852.16;;;10.08;80.38
11099;BME280;12223;42.650;23.364;2023-04-10T07:50:44;94848.16;;;9.99;82.54
11099;BME280;12223;42.650;23.364;2023-04-10T07:53:11;94850.19;;;9.97;82.22
11099;BME280;12223;42.650;23.364;2023-04-10T07:55:38;94839.22;;;10.00;82.72
11099;BME280;12223;42.650;23.364;2023-04-10T07:58:04;94822.38;;;10.51;79.48
11099;BME280;12223;42.650;23.364;2023-04-10T08:00:33;94836.28;;;11.01;76.21
11099;BME280;12223;42.650;23.364;2023-04-10T08:03:00;94837.84;;;11.08;73.38
11099;BME280;12223;42.650;23.364;2023-04-10T08:05:26;94846.16;;;9.94;76.23
11099;BME280;12223;42.650;23.364;2023-04-10T08:07:53;94840.81;;;10.01;79.01
11099;BME280;12223;42.650;23.364;2023-04-10T08:10:20;94845.63;;;10.17;79.46
11099;BME280;12223;42.650;23.364;2023-04-10T08:12:47;94833.47;;;10.09;79.97
11099;BME280;12223;42.650;23.364;2023-04-10T08:15:14;94821.50;;;10.07;80.49
11099;BME280;12223;42.650;23.364;2023-04-10T08:17:42;94841.13;;;10.24;81.68
11099;BME280;12223;42.650;23.364;2023-04-10T08:20:09;94843.09;;;9.97;80.68
11099;BME280;12223;42.650;23.364;2023-04-10T08:22:36;94839.69;;;10.22;82.86
11099;BME280;12223;42.650;23.364;2023-04-10T08:25:04;94843.59;;;10.62;78.52
11099;BME280;12223;42.650;23.364;2023-04-10T08:27:31;94841.97;;;10.86;75.94
11099;BME280;12223;42.650;23.364;2023-04-10T08:29:58;94846.38;;;10.49;78.03
11099;BME280;12223;42.650;23.364;2023-04-10T08:32:24;94844.72;;;10.73;76.55
11099;BME280;12223;42.650;23.364;2023-04-10T08:34:53;94837.28;;;10.14;78.05
11099;BME280;12223;42.650;23.364;2023-04-10T08:37:20;94841.94;;;10.18;82.88
11099;BME280;12223;42.650;23.364;2023-04-10T08:39:47;94818.53;;;10.28;81.31
11099;BME280;12223;42.650;23.364;2023-04-10T08:42:14;94845.78;;;10.47;78.76
11099;BME280;12223;42.650;23.364;2023-04-10T08:44:40;94841.00;;;10.06;81.40
11099;BME280;12223;42.650;23.364;2023-04-10T08:47:08;94841.53;;;10.15;81.44
11099;BME280;12223;42.650;23.364;2023-04-10T08:49:39;94836.75;;;10.36;81.54
11099;BME280;12223;42.650;23.364;2023-04-10T08:52:14;94826.53;;;10.15;79.63
11099;BME280;12223;42.650;23.364;2023-04-10T08:54:44;94831.94;;;10.27;79.95
11099;BME280;12223;42.650;23.364;2023-04-10T08:57:14;94824.31;;;10.12;80.25
11099;BME280;12223;42.650;23.364;2023-04-10T08:59:45;94834.84;;;10.19;78.67
11099;BME280;12223;42.650;23.364;2023-04-10T09:02:12;94822.75;;;10.04;78.11
11099;BME280;12223;42.650;23.364;2023-04-10T09:04:38;94824.63;;;9.97;79.34
11099;BME280;12223;42.650;23.364;2023-04-10T09:07:05;94842.63;;;10.07;81.30
11099;BME280;12223;42.650;23.364;2023-04-10T09:09:34;94822.09;;;9.84;77.26
11099;BME280;12223;42.650;23.364;2023-04-10T09:12:01;94826.56;;;9.84;80.59
11099;BME280;12223;42.650;23.364;2023-04-10T09:14:29;94767.56;;;9.47;80.31
11099;BME280;12223;42.650;23.364;2023-04-10T09:17:13;94832.06;;;10.07;81.51
11099;BME280;12223;42.650;23.364;2023-04-10T09:19:42;94809.41;;;10.49;77.36
11099;BME280;12223;42.650;23.364;2023-04-10T09:22:09;94811.56;;;10.77;76.17
11099;BME280;12223;42.650;23.364;2023-04-10T09:24:39;94811.72;;;11.18;75.21
11099;BME280;12223;42.650;23.364;2023-04-10T09:27:06;94808.81;;;11.38;71.62
11099;BME280;12223;42.650;23.364;2023-04-10T09:29:43;94814.84;;;11.27;70.48
11099;BME280;12223;42.650;23.364;2023-04-10T09:32:10;94809.97;;;11.12;71.56
11099;BME280;12223;42.650;23.364;2023-04-10T09:34:51;94811.22;;;10.92;71.01
11099;BME280;12223;42.650;23.364;2023-04-10T09:37:19;94810.47;;;10.84;72.29
11099;BME280;12223;42.650;23.364;2023-04-10T09:39:48;94806.88;;;10.79;74.66
11099;BME280;12223;42.650;23.364;2023-04-10T09:42:29;94798.34;;;10.77;74.61
11099;BME280;12223;42.650;23.364;2023-04-10T09:44:57;94781.13;;;10.93;74.50
11099;BME280;12223;42.650;23.364;2023-04-10T09:47:24;94807.81;;;11.03;75.63
11099;BME280;12223;42.650;23.364;2023-04-10T09:49:54;94807.63;;;10.86;74.38
11099;BME280;12223;42.650;23.364;2023-04-10T09:52:22;94792.09;;;10.53;74.89
11099;BME280;12223;42.650;23.364;2023-04-10T09:54:52;94809.72;;;10.96;75.14
11099;BME280;12223;42.650;23.364;2023-04-10T09:57:21;94797.84;;;11.23;70.50
11099;BME280;12223;42.650;23.364;2023-04-10T09:59:50;94805.00;;;11.64;67.68
11099;BME280;12223;42.650;23.364;2023-04-10T10:02:20;94790.00;;;10.62;66.92
11099;BME280;12223;42.650;23.364;2023-04-10T10:04:49;94808.75;;;10.54;69.07
11099;BME280;12223;42.650;23.364;2023-04-10T10:07:18;94783.16;;;10.54;67.46
11099;BME280;12223;42.650;23.364;2023-04-10T10:09:47;94793.66;;;10.79;65.31
11099;BME280;12223;42.650;23.364;2023-04-10T10:12:21;94796.06;;;11.17;64.73
11099;BME280;12223;42.650;23.364;2023-04-10T10:14:56;94798.50;;;11.00;63.39
11099;BME280;12223;42.650;23.364;2023-04-10T10:17:31;94777.22;;;10.95;63.25
11099;BME280;12223;42.650;23.364;2023-04-10T10:20:03;94787.50;;;11.03;63.07
11099;BME280;12223;42.650;23.364;2023-04-10T10:22:31;94711.31;;;9.84;65.06
11099;BME280;12223;42.650;23.364;2023-04-10T10:24:59;94763.41;;;10.38;65.30
11099;BME280;12223;42.650;23.364;2023-04-10T10:27:30;94773.41;;;10.55;63.74
11099;BME280;12223;42.650;23.364;2023-04-10T10:30:00;94769.53;;;10.94;62.46
11099;BME280;12223;42.650;23.364;2023-04-10T10:32:28;94763.25;;;11.54;61.31
11099;BME280;12223;42.650;23.364;2023-04-10T10:34:59;94775.75;;;11.47;59.72
11099;BME280;12223;42.650;23.364;2023-04-10T10:37:28;94750.19;;;11.11;60.40
11099;BME280;12223;42.650;23.364;2023-04-10T10:40:03;94754.25;;;11.44;60.46
11099;BME280;12223;42.650;23.364;2023-04-10T10:42:44;94754.47;;;11.84;58.68
11099;BME280;12223;42.650;23.364;2023-04-10T10:45:15;94765.81;;;11.73;59.35
11099;BME280;12223;42.650;23.364;2023-04-10T10:47:44;94745.91;;;11.28;59.87
11099;BME280;12223;42.650;23.364;2023-04-10T10:53:34;94742.00;;;11.61;60.01
11099;BME280;12223;42.650;23.364;2023-04-10T10:56:33;94737.84;;;12.18;57.52
11099;BME280;12223;42.650;23.364;2023-04-10T10:59:02;94732.56;;;12.18;58.05
11099;BME280;12223;42.650;23.364;2023-04-10T11:01:29;94735.91;;;12.14;55.98
11099;BME280;12223;42.650;23.364;2023-04-10T11:03:56;94723.75;;;12.76;55.79
11099;BME280;12223;42.650;23.364;2023-04-10T11:06:48;94723.56;;;12.54;54.16
11099;BME280;12223;42.650;23.364;2023-04-10T11:09:44;94710.56;;;12.41;54.61
11099;BME280;12223;42.650;23.364;2023-04-10T11:12:13;94709.44;;;12.25;54.74
11099;BME280;12223;42.650;23.364;2023-04-10T11:14:42;94713.66;;;12.15;56.53
11099;BME280;12223;42.650;23.364;2023-04-10T11:17:11;94703.28;;;11.90;55.51
11099;BME280;12223;42.650;23.364;2023-04-10T11:19:58;94713.19;;;11.83;55.29
11099;BME280;12223;42.650;23.364;2023-04-10T11:22:31;94705.94;;;11.90;56.36
11099;BME280;12223;42.650;23.364;2023-04-10T11:25:19;94700.78;;;11.95;55.59
11099;BME280;12223;42.650;23.364;2023-04-10T11:27:47;94705.72;;;11.80;55.50
11099;BME280;12223;42.650;23.364;2023-04-10T11:30:40;94696.41;;;12.24;55.09
11099;BME280;12223;42.650;23.364;2023-04-10T11:33:07;94714.69;;;12.02;56.41
11099;BME280;12223;42.650;23.364;2023-04-10T11:35:34;94683.97;;;11.36;57.78
11099;BME280;12223;42.650;23.364;2023-04-10T11:38:24;94690.16;;;11.83;59.28
11099;BME280;12223;42.650;23.364;2023-04-10T11:41:03;94697.91;;;12.20;57.82
11099;BME280;12223;42.650;23.364;2023-04-10T11:43:31;94689.03;;;12.37;57.37
11099;BME280;12223;42.650;23.364;2023-04-10T11:46:09;94653.94;;;11.84;56.33
11099;BME280;12223;42.650;23.364;2023-04-10T11:48:42;94724.13;;;11.75;55.95
11099;BME280;12223;42.650;23.364;2023-04-10T11:51:12;94709.50;;;11.84;54.92
11099;BME280;12223;42.650;23.364;2023-04-10T11:53:40;94704.78;;;11.74;56.37
11099;BME280;12223;42.650;23.364;2023-04-10T11:56:16;94695.13;;;11.80;57.63
11099;BME280;12223;42.650;23.364;2023-04-10T11:58:54;94690.69;;;11.62;58.24
11099;BME280;12223;42.650;23.364;2023-04-10T12:01:21;94700.06;;;11.35;56.67
11099;BME280;12223;42.650;23.364;2023-04-10T12:03:48;94698.91;;;10.82;57.87
11099;BME280;12223;42.650;23.364;2023-04-10T12:06:15;94682.94;;;10.77;59.05
11099;BME280;12223;42.650;23.364;2023-04-10T12:08:48;94698.00;;;10.40;61.51
11099;BME280;12223;42.650;23.364;2023-04-10T12:11:18;94696.16;;;10.59;61.86
11099;BME280;12223;42.650;23.364;2023-04-10T12:13:46;94688.03;;;10.61;63.67
11099;BME280;12223;42.650;23.364;2023-04-10T12:16:13;94693.72;;;10.58;67.37
11099;BME280;12223;42.650;23.364;2023-04-10T12:18:40;94709.84;;;10.31;76.34
11099;BME280;12223;42.650;23.364;2023-04-10T12:21:08;94715.75;;;10.08;86.28
11099;BME280;12223;42.650;23.364;2023-04-10T12:23:36;94699.94;;;9.59;96.67
11099;BME280;12223;42.650;23.364;2023-04-10T12:26:11;94709.06;;;9.32;100.00
11099;BME280;12223;42.650;23.364;2023-04-10T12:28:49;94713.94;;;9.28;100.00
11099;BME280;12223;42.650;23.364;2023-04-10T12:31:16;94712.56;;;9.19;100.00
11099;BME280;12223;42.650;23.364;2023-04-10T12:33:43;94712.56;;;9.19;100.00
11099;BME280;12223;42.650;23.364;2023-04-10T12:36:19;94696.22;;;9.10;100.00
11099;BME280;12223;42.650;23.364;2023-04-10T12:38:46;94713.38;;;9.19;100.00
11099;BME280;12223;42.650;23.364;2023-04-10T12:41:20;94702.50;;;9.09;100.00
11099;BME280;12223;42.650;23.364;2023-04-10T12:43:49;94702.44;;;9.22;100.00
11099;BME280;12223;42.650;23.364;2023-04-10T12:46:24;94700.81;;;9.53;100.00
11099;BME280;12223;42.650;23.364;2023-04-10T12:49:11;94704.19;;;9.85;100.00
11099;BME280;12223;42.650;23.364;2023-04-10T12:51:45;94700.41;;;9.49;100.00
11099;BME280;12223;42.650;23.364;2023-04-10T12:54:26;94697.25;;;9.90;97.50
11099;BME280;12223;42.650;23.364;2023-04-10T12:56:53;94703.50;;;10.14;96.79
11099;BME280;12223;42.650;23.364;2023-04-10T12:59:21;94703.53;;;9.89;96.92
11099;BME280;12223;42.650;23.364;2023-04-10T13:01:48;94688.06;;;9.93;97.58
11099;BME280;12223;42.650;23.364;2023-04-10T13:04:15;94681.66;;;10.07;98.48
11099;BME280;12223;42.650;23.364;2023-04-10T13:06:43;94692.63;;;9.86;95.62
11099;BME280;12223;42.650;23.364;2023-04-10T13:09:11;94674.13;;;10.11;95.33